createdAt,value
2023-01-11T00:01:08.942Z,29.48
2023-01-11T00:03:36.041Z,27.90
2023-01-11T00:06:03.075Z,27.92
2023-01-11T00:08:30.214Z,28.48
2023-01-11T00:10:57.271Z,26.17
2023-01-11T00:13:24.244Z,28.85
2023-01-11T00:15:51.313Z,25.90
2023-01-11T00:18:18.401Z,28.40
2023-01-11T00:20:45.399Z,25.45
2023-01-11T00:23:12.497Z,26.25
2023-01-11T00:25:39.855Z,24.40
2023-01-11T00:28:07.426Z,25.08
2023-01-11T00:30:35.682Z,23.48
2023-01-11T00:33:02.738Z,23.70
2023-01-11T00:35:31.568Z,22.40
2023-01-11T00:37:58.572Z,20.58
2023-01-11T00:40:26.550Z,24.95
2023-01-11T00:43:28.800Z,20.58
2023-01-11T00:46:17.172Z,19.02
2023-01-11T00:48:44.277Z,17.48
2023-01-11T00:51:11.320Z,17.10
2023-01-11T00:53:38.364Z,17.25
2023-01-11T00:56:05.452Z,16.63
2023-01-11T00:58:32.425Z,16.83
2023-01-11T01:01:06.261Z,15.55
2023-01-11T01:03:34.327Z,15.88
2023-01-11T01:06:01.318Z,14.85
2023-01-11T01:08:28.333Z,15.15
2023-01-11T01:10:55.373Z,14.88
2023-01-11T01:13:40.996Z,15.68
2023-01-11T01:16:08.250Z,16.42
2023-01-11T01:18:35.305Z,14.70
2023-01-11T01:21:02.261Z,15.43
2023-01-11T01:23:29.303Z,15.55
2023-01-11T01:25:56.233Z,15.70
2023-01-11T01:28:23.264Z,15.15
2023-01-11T01:30:51.822Z,14.18
2023-01-11T01:33:18.857Z,14.18
2023-01-11T01:35:45.846Z,13.80
2023-01-11T01:38:12.881Z,13.60
2023-01-11T01:40:44.735Z,13.57
2023-01-11T01:43:13.365Z,13.32
2023-01-11T01:45:41.623Z,13.18
2023-01-11T01:48:12.715Z,12.95
2023-01-11T01:50:47.456Z,13.35
2023-01-11T01:53:23.911Z,13.40
2023-01-11T01:55:55.012Z,12.15
2023-01-11T01:58:29.127Z,12.73
2023-01-11T02:00:56.269Z,12.07
2023-01-11T02:03:27.236Z,12.60
2023-01-11T02:05:54.567Z,10.70
2023-01-11T02:08:33.239Z,11.07
2023-01-11T02:11:01.228Z,11.15
2023-01-11T02:13:29.445Z,10.95
2023-01-11T02:16:09.328Z,10.43
2023-01-11T02:18:37.780Z,9.55
2023-01-11T02:21:25.761Z,10.73
2023-01-11T02:24:10.310Z,9.55
2023-01-11T02:27:04.741Z,9.27
2023-01-11T02:29:58.753Z,8.63
2023-01-11T02:32:53.156Z,8.45
2023-01-11T02:35:52.458Z,8.50
2023-01-11T02:38:33.506Z,7.65
2023-01-11T02:41:17.095Z,7.88
2023-01-11T02:44:18.416Z,8.82
2023-01-11T02:46:57.354Z,9.63
2023-01-11T02:49:45.921Z,8.85
2023-01-11T02:52:20.788Z,10.27
2023-01-11T02:54:54.659Z,9.63
2023-01-11T02:57:25.583Z,10.63
2023-01-11T02:59:55.187Z,11.30
2023-01-11T03:02:22.133Z,12.23
2023-01-11T03:04:49.146Z,11.93
2023-01-11T03:07:27.766Z,12.23
2023-01-11T03:10:33.226Z,12.88
2023-01-11T03:13:17.124Z,12.73
2023-01-11T03:16:08.811Z,11.43
2023-01-11T03:18:35.743Z,11.52
2023-01-11T03:21:21.537Z,13.10
2023-01-11T03:24:03.867Z,13.52
2023-01-11T03:26:45.942Z,13.48
2023-01-11T03:29:40.314Z,14.15
2023-01-11T03:32:17.911Z,14.60
2023-01-11T03:34:48.382Z,15.65
2023-01-11T03:37:31.635Z,18.48
2023-01-11T03:40:19.207Z,19.88
2023-01-11T03:43:08.736Z,21.23
2023-01-11T03:45:43.214Z,23.45
2023-01-11T03:48:15.328Z,24.27
2023-01-11T03:50:43.414Z,24.65
2023-01-11T03:53:11.723Z,24.10
2023-01-11T03:55:42.258Z,23.98
2023-01-11T03:58:09.878Z,21.45
2023-01-11T04:00:37.929Z,21.67
2023-01-11T04:03:06.230Z,20.17
2023-01-11T04:05:35.618Z,19.50
2023-01-11T04:08:02.647Z,19.73
2023-01-11T04:10:29.678Z,19.80
2023-01-11T04:12:57.311Z,17.48
2023-01-11T04:15:24.298Z,17.98
2023-01-11T04:17:51.264Z,17.83
2023-01-11T04:20:18.416Z,18.00
2023-01-11T04:22:45.387Z,17.70
2023-01-11T04:25:12.502Z,17.38
2023-01-11T04:27:40.754Z,17.80
2023-01-11T04:30:08.361Z,17.58
2023-01-11T04:32:35.270Z,17.88
2023-01-11T04:35:02.298Z,16.42
2023-01-11T04:37:29.291Z,17.13
2023-01-11T04:39:56.294Z,16.10
2023-01-11T04:42:25.002Z,17.25
2023-01-11T04:44:52.828Z,17.05
2023-01-11T04:47:22.908Z,16.17
2023-01-11T04:49:50.282Z,16.00
2023-01-11T04:52:19.264Z,15.75
2023-01-11T04:54:48.920Z,16.88
2023-01-11T04:57:17.586Z,16.75
2023-01-11T04:59:46.905Z,15.65
2023-01-11T05:02:14.563Z,16.53
2023-01-11T05:04:41.695Z,16.02
2023-01-11T05:07:09.686Z,16.90
2023-01-11T05:09:37.042Z,16.55
2023-01-11T05:12:04.333Z,16.67
2023-01-11T05:14:31.410Z,16.80
2023-01-11T05:16:59.179Z,16.58
2023-01-11T05:19:26.220Z,15.38
2023-01-11T05:21:53.298Z,16.35
2023-01-11T05:24:20.442Z,15.90
2023-01-11T05:26:50.326Z,15.77
2023-01-11T05:29:19.405Z,14.15
2023-01-11T05:31:47.153Z,15.10
2023-01-11T05:34:15.459Z,14.82
2023-01-11T05:36:43.444Z,15.25
2023-01-11T05:39:14.358Z,14.18
2023-01-11T05:41:41.718Z,13.98
2023-01-11T05:44:31.124Z,14.02
2023-01-11T05:46:58.792Z,14.35
2023-01-11T05:49:25.924Z,15.32
2023-01-11T05:51:53.149Z,15.68
2023-01-11T05:54:20.239Z,15.32
2023-01-11T05:56:47.400Z,14.75
2023-01-11T05:59:14.481Z,14.23
2023-01-11T06:01:41.585Z,13.65
2023-01-11T06:04:08.830Z,14.75
2023-01-11T06:06:36.030Z,13.80
2023-01-11T06:09:03.191Z,14.95
2023-01-11T06:11:30.313Z,13.80
2023-01-11T06:13:57.348Z,14.20
2023-01-11T06:16:24.633Z,14.57
2023-01-11T06:18:53.178Z,13.60
2023-01-11T06:21:21.433Z,14.43
2023-01-11T06:23:52.772Z,14.50
2023-01-11T06:26:22.298Z,15.10
2023-01-11T06:28:49.788Z,11.75
2023-01-11T06:31:18.233Z,14.45
2023-01-11T06:33:46.667Z,12.40
2023-01-11T06:36:15.315Z,13.10
2023-01-11T06:38:43.024Z,12.80
2023-01-11T06:41:11.493Z,12.10
2023-01-11T06:43:41.877Z,12.13
2023-01-11T06:46:16.664Z,12.88
2023-01-11T06:48:44.621Z,10.93
2023-01-11T06:51:12.765Z,11.30
2023-01-11T06:53:41.580Z,11.23
2023-01-11T06:56:12.995Z,12.20
2023-01-11T06:58:40.108Z,10.63
2023-01-11T07:01:07.783Z,11.52
2023-01-11T07:03:35.597Z,12.65
2023-01-11T07:06:02.911Z,12.45
2023-01-11T07:08:29.941Z,10.88
2023-01-11T07:10:57.000Z,12.48
2023-01-11T07:13:24.043Z,11.02
2023-01-11T07:15:52.509Z,12.23
2023-01-11T07:18:20.281Z,11.90
2023-01-11T07:20:47.431Z,11.00
2023-01-11T07:23:14.573Z,11.93
2023-01-11T07:25:41.817Z,11.60
2023-01-11T07:28:09.858Z,11.45
2023-01-11T07:30:56.569Z,12.52
2023-01-11T07:33:25.783Z,11.98
2023-01-11T07:35:52.988Z,12.95
2023-01-11T07:38:20.152Z,11.82
2023-01-11T07:40:47.463Z,11.55
2023-01-11T07:43:15.581Z,10.75
2023-01-11T07:45:46.707Z,11.00
2023-01-11T07:48:16.188Z,11.00
2023-01-11T07:50:45.113Z,11.60
2023-01-11T07:53:13.350Z,10.55
2023-01-11T07:55:41.525Z,9.80
2023-01-11T07:58:13.166Z,10.15
2023-01-11T08:00:41.304Z,9.68
2023-01-11T08:03:09.021Z,9.38
2023-01-11T08:05:36.208Z,10.85
2023-01-11T08:08:03.596Z,9.73
2023-01-11T08:10:31.175Z,8.88
2023-01-11T08:13:16.909Z,9.15
2023-01-11T08:15:44.224Z,8.75
2023-01-11T08:18:12.391Z,8.63
2023-01-11T08:20:40.286Z,7.63
2023-01-11T08:23:09.992Z,8.18
2023-01-11T08:25:37.800Z,7.80
2023-01-11T08:28:07.557Z,7.30
2023-01-11T08:30:35.445Z,7.45
2023-01-11T08:33:03.113Z,6.82
2023-01-11T08:35:31.367Z,6.40
2023-01-11T08:37:58.595Z,7.15
2023-01-11T08:40:25.933Z,6.38
2023-01-11T08:42:57.212Z,6.22
2023-01-11T08:45:25.157Z,6.20
2023-01-11T08:47:52.653Z,6.50
2023-01-11T08:50:22.110Z,6.32
2023-01-11T08:52:51.440Z,6.40
2023-01-11T08:55:19.690Z,6.50
2023-01-11T08:57:47.020Z,6.03
2023-01-11T09:00:14.817Z,6.35
2023-01-11T09:02:42.186Z,5.50
2023-01-11T09:05:09.960Z,6.63
2023-01-11T09:07:37.101Z,5.82
2023-01-11T09:10:04.605Z,5.75
2023-01-11T09:12:33.007Z,6.90
2023-01-11T09:15:00.664Z,6.47
2023-01-11T09:17:27.957Z,6.63
2023-01-11T09:19:55.033Z,6.30
2023-01-11T09:22:22.073Z,6.45
2023-01-11T09:24:49.204Z,5.72
2023-01-11T09:27:16.797Z,6.75
2023-01-11T09:29:44.065Z,7.13
2023-01-11T09:32:11.187Z,6.45
2023-01-11T09:34:39.392Z,5.47
2023-01-11T09:37:07.273Z,7.18
2023-01-11T09:39:35.439Z,5.65
2023-01-11T09:42:37.922Z,6.63
2023-01-11T09:45:07.273Z,5.65
2023-01-11T09:47:41.233Z,6.37
2023-01-11T09:50:14.648Z,6.65
2023-01-11T09:52:44.897Z,5.93
2023-01-11T09:58:20.322Z,5.75
2023-01-11T10:01:01.440Z,5.20
2023-01-11T10:03:43.448Z,6.43
2023-01-11T10:06:37.253Z,6.07
2023-01-11T10:18:30.559Z,5.78
2023-01-11T10:19:35.952Z,5.80
2023-01-11T10:22:40.763Z,6.60
2023-01-11T10:25:33.827Z,6.38
2023-01-11T10:28:25.863Z,7.38
2023-01-11T10:30:59.258Z,7.15
2023-01-11T10:33:49.002Z,6.55
2023-01-11T10:36:31.580Z,6.65
2023-01-11T10:39:37.155Z,6.38
2023-01-11T10:42:28.401Z,6.00
2023-01-11T10:45:04.131Z,5.97
2023-01-11T10:47:43.544Z,6.20
2023-01-11T10:50:35.489Z,6.43
2023-01-11T10:53:17.195Z,5.45
2023-01-11T10:55:44.836Z,6.32
2023-01-11T10:58:26.129Z,6.70
2023-01-11T11:01:17.335Z,5.70
2023-01-11T11:03:48.002Z,6.00
2023-01-11T11:06:30.097Z,6.00
2023-01-11T11:09:25.306Z,5.68
2023-01-11T11:12:00.492Z,6.18
2023-01-11T11:14:39.225Z,6.25
2023-01-11T11:17:18.635Z,6.13
2023-01-11T11:19:45.723Z,6.00
2023-01-11T11:22:13.603Z,5.90
2023-01-11T11:24:48.593Z,5.55
2023-01-11T11:27:21.733Z,5.35
2023-01-11T11:29:57.255Z,6.10
2023-01-11T11:32:31.702Z,6.00
2023-01-11T11:34:59.193Z,6.03
2023-01-11T11:37:35.328Z,6.70
2023-01-11T11:40:03.592Z,6.20
2023-01-11T11:42:30.731Z,6.47
2023-01-11T11:45:10.095Z,6.80
2023-01-11T11:47:40.440Z,6.07
2023-01-11T11:50:37.083Z,6.13
2023-01-11T11:53:07.294Z,7.32
2023-01-11T11:55:35.792Z,6.25
2023-01-11T11:58:12.364Z,6.57
2023-01-11T12:00:49.508Z,6.60
2023-01-11T12:03:22.286Z,5.82
2023-01-11T12:06:09.564Z,5.95
2023-01-11T12:08:37.328Z,6.50
2023-01-11T12:11:08.265Z,6.55
2023-01-11T12:13:38.634Z,6.43
2023-01-11T12:16:30.065Z,6.20
2023-01-11T12:18:57.145Z,6.75
2023-01-11T12:21:27.275Z,5.90
2023-01-11T12:24:27.162Z,5.80
2023-01-11T12:27:16.403Z,5.85
2023-01-11T12:30:28.357Z,6.15
2023-01-11T12:33:02.357Z,6.15
2023-01-11T12:35:40.899Z,5.82
2023-01-11T12:38:28.905Z,6.85
2023-01-11T12:41:09.522Z,6.28
2023-01-11T12:43:48.199Z,5.88
2023-01-11T12:46:30.109Z,5.85
2023-01-11T12:49:07.530Z,6.38
2023-01-11T12:51:46.516Z,6.30
2023-01-11T12:54:34.813Z,6.13
2023-01-11T12:57:31.121Z,6.88
2023-01-11T13:00:06.347Z,6.32
2023-01-11T13:02:58.907Z,5.93
2023-01-11T13:05:49.103Z,6.35
2023-01-11T13:08:19.107Z,6.35
2023-01-11T13:11:08.070Z,6.82
2023-01-11T13:13:38.144Z,6.13
2023-01-11T13:16:17.851Z,5.97
2023-01-11T13:18:51.519Z,6.70
2023-01-11T13:21:33.704Z,6.20
2023-01-11T13:24:14.348Z,6.60
2023-01-11T13:26:48.020Z,6.60
2023-01-11T13:29:18.851Z,6.65
2023-01-11T13:31:48.759Z,6.72
2023-01-11T13:34:37.355Z,6.78
2023-01-11T13:37:14.466Z,7.28
2023-01-11T13:40:03.233Z,7.03
2023-01-11T13:42:36.053Z,6.53
2023-01-11T13:45:36.522Z,6.70
2023-01-11T13:48:13.428Z,6.70
2023-01-11T13:50:48.733Z,7.13
2023-01-11T13:53:43.989Z,6.65
2023-01-11T13:56:19.141Z,6.78
2023-01-11T13:58:55.063Z,7.00
2023-01-11T14:01:37.908Z,6.35
2023-01-11T14:04:10.519Z,6.85
2023-01-11T14:07:12.370Z,6.55
2023-01-11T14:09:58.082Z,5.70
2023-01-11T14:12:56.773Z,6.07
2023-01-11T14:15:24.032Z,5.78
2023-01-11T14:18:18.230Z,5.75
2023-01-11T14:21:05.894Z,5.45
2023-01-11T14:23:53.510Z,5.72
2023-01-11T14:26:54.460Z,5.47
2023-01-11T14:29:37.924Z,5.78
2023-01-11T14:32:41.972Z,5.15
2023-01-11T14:35:15.037Z,5.35
2023-01-11T14:38:06.620Z,4.97
2023-01-11T14:40:59.553Z,5.05
2023-01-11T14:43:40.032Z,4.90
2023-01-11T14:46:16.832Z,4.60
2023-01-11T14:49:07.019Z,4.63
2023-01-11T14:52:00.040Z,4.78
2023-01-11T14:54:39.399Z,4.55
2023-01-11T14:57:06.947Z,5.10
2023-01-11T14:59:37.054Z,4.93
2023-01-11T15:02:04.269Z,4.30
2023-01-11T15:04:59.131Z,4.75
2023-01-11T15:07:39.725Z,5.20
2023-01-11T15:10:28.605Z,4.93
2023-01-11T15:12:57.621Z,4.90
2023-01-11T15:15:51.450Z,4.43
2023-01-11T15:18:23.069Z,5.00
2023-01-11T15:20:56.461Z,5.47
2023-01-11T15:23:24.771Z,4.82
2023-01-11T15:26:01.168Z,5.05
2023-01-11T15:28:34.310Z,5.10
2023-01-11T15:31:04.749Z,5.95
2023-01-11T15:33:49.262Z,5.68
2023-01-11T15:36:16.398Z,6.20
2023-01-11T15:39:02.764Z,6.30
2023-01-11T15:42:06.988Z,5.75
2023-01-11T15:44:57.808Z,5.80
2023-01-11T15:48:01.657Z,5.80
2023-01-11T15:50:57.394Z,5.78
2023-01-11T15:53:44.633Z,5.68
2023-01-11T15:56:45.769Z,5.35
2023-01-11T15:59:18.714Z,5.97
2023-01-11T16:01:48.469Z,5.18
2023-01-11T16:04:29.410Z,5.13
2023-01-11T16:07:05.650Z,5.63
2023-01-11T16:09:42.077Z,5.10
2023-01-11T16:12:38.385Z,5.45
2023-01-11T16:15:42.998Z,4.95
2023-01-11T16:18:25.352Z,5.28
2023-01-11T16:21:07.515Z,5.13
2023-01-11T16:23:35.048Z,6.50
2023-01-11T16:26:04.878Z,5.88
2023-01-11T16:28:32.137Z,5.53
2023-01-11T16:31:02.362Z,6.13
2023-01-11T16:36:27.093Z,5.25
2023-01-11T16:39:01.417Z,6.18
2023-01-11T16:41:54.722Z,5.75
2023-01-11T16:44:36.907Z,6.28
2023-01-11T16:47:11.529Z,6.97
2023-01-11T16:49:39.791Z,6.95
2023-01-11T16:52:28.420Z,7.10
2023-01-11T16:55:01.812Z,7.00
2023-01-11T16:57:39.980Z,7.15
2023-01-11T17:00:19.245Z,7.22
2023-01-11T17:02:49.142Z,7.20
2023-01-11T17:05:24.236Z,6.97
2023-01-11T17:07:51.443Z,7.35
2023-01-11T17:10:24.004Z,7.35
2023-01-11T17:13:33.917Z,6.80
2023-01-11T17:16:14.366Z,6.57
2023-01-11T17:18:42.763Z,8.02
2023-01-11T17:21:27.700Z,7.88
2023-01-11T17:24:00.567Z,7.82
2023-01-11T17:26:49.550Z,8.38
2023-01-11T17:29:32.729Z,7.68
2023-01-11T17:32:03.158Z,8.20
2023-01-11T17:34:40.042Z,9.02
2023-01-11T17:37:12.949Z,7.90
2023-01-11T17:40:04.183Z,7.93
2023-01-11T17:42:49.792Z,7.97
2023-01-11T17:45:23.891Z,7.68
2023-01-11T17:47:54.080Z,7.78
2023-01-11T17:50:23.912Z,7.47
2023-01-11T17:52:55.324Z,7.55
2023-01-11T17:55:25.586Z,7.50
2023-01-11T17:58:14.127Z,7.40
2023-01-11T18:00:44.010Z,7.88
2023-01-11T18:03:15.874Z,7.75
2023-01-11T18:05:43.482Z,8.30
2023-01-11T18:08:20.311Z,7.32
2023-01-11T18:10:54.886Z,9.00
2023-01-11T18:13:29.163Z,7.38
2023-01-11T18:15:56.419Z,8.85
2023-01-11T18:18:45.321Z,8.30
2023-01-11T18:21:50.570Z,8.88
2023-01-11T18:24:25.357Z,7.53
2023-01-11T18:27:06.398Z,8.30
2023-01-11T18:29:36.646Z,8.23
2023-01-11T18:32:06.025Z,9.07
2023-01-11T18:34:33.134Z,9.80
2023-01-11T18:37:01.439Z,9.10
2023-01-11T18:39:28.880Z,9.93
2023-01-11T18:42:08.458Z,11.52
2023-01-11T18:44:36.785Z,10.70
2023-01-11T18:47:13.135Z,11.15
2023-01-11T18:49:40.227Z,10.77
2023-01-11T18:52:07.316Z,11.00
2023-01-11T18:54:34.491Z,11.48
2023-01-11T18:57:01.656Z,11.38
2023-01-11T18:59:28.824Z,12.63
2023-01-11T19:02:16.666Z,13.30
2023-01-11T19:04:45.006Z,12.50
2023-01-11T19:07:13.024Z,12.02
2023-01-11T19:09:40.630Z,13.73
2023-01-11T19:12:08.158Z,12.35
2023-01-11T19:14:35.430Z,14.40
2023-01-11T19:17:04.575Z,14.60
2023-01-11T19:19:31.765Z,16.10
2023-01-11T19:21:58.896Z,15.63
2023-01-11T19:24:26.142Z,14.70
2023-01-11T19:26:53.428Z,16.17
2023-01-11T19:29:22.942Z,15.27
2023-01-11T19:31:50.221Z,17.45
2023-01-11T19:34:17.340Z,17.05
2023-01-11T19:36:44.674Z,17.90
2023-01-11T19:39:11.842Z,20.05
2023-01-11T19:41:57.450Z,15.38
2023-01-11T19:44:27.056Z,16.95
2023-01-11T19:47:09.569Z,17.40
2023-01-11T19:49:37.649Z,20.83
2023-01-11T19:52:05.811Z,19.88
2023-01-11T19:54:32.885Z,17.50
2023-01-11T19:57:00.098Z,19.02
2023-01-11T19:59:27.098Z,19.80
2023-01-11T20:01:54.169Z,17.63
2023-01-11T20:04:21.367Z,17.15
2023-01-11T20:06:52.239Z,16.75
2023-01-11T20:09:20.328Z,19.55
2023-01-11T20:11:49.592Z,16.17
2023-01-11T20:14:17.294Z,18.75
2023-01-11T20:16:44.478Z,16.73
2023-01-11T20:19:12.363Z,17.77
2023-01-11T20:21:39.773Z,17.90
2023-01-11T20:24:07.189Z,16.42
2023-01-11T20:26:34.466Z,20.63
2023-01-11T20:29:02.473Z,20.15
2023-01-11T20:31:33.120Z,19.00
2023-01-11T20:34:02.628Z,17.70
2023-01-11T20:36:29.690Z,19.57
2023-01-11T20:38:57.011Z,20.73
2023-01-11T20:41:45.259Z,19.08
2023-01-11T20:44:14.871Z,20.42
2023-01-11T20:46:42.458Z,20.80
2023-01-11T20:49:09.641Z,18.70
2023-01-11T20:51:37.055Z,23.63
2023-01-11T20:54:05.671Z,20.92
2023-01-11T20:56:33.948Z,20.60
2023-01-11T20:59:02.318Z,19.48
2023-01-11T21:01:30.618Z,24.25
2023-01-11T21:03:59.850Z,21.33
2023-01-11T21:06:27.905Z,19.58
2023-01-11T21:08:56.598Z,19.90
2023-01-11T21:11:24.559Z,21.90
2023-01-11T21:13:53.724Z,19.45
2023-01-11T21:16:23.089Z,25.60
2023-01-11T21:19:01.101Z,23.13
2023-01-11T21:21:31.267Z,21.67
2023-01-11T21:24:04.402Z,25.60
2023-01-11T21:26:32.514Z,22.25
2023-01-11T21:29:02.015Z,21.48
2023-01-11T21:31:32.289Z,20.90
2023-01-11T21:36:29.131Z,21.30
2023-01-11T21:38:57.920Z,21.48
2023-01-11T21:41:46.400Z,24.48
2023-01-11T21:44:14.504Z,20.92
2023-01-11T21:46:42.787Z,24.02
2023-01-11T21:49:11.015Z,20.63
2023-01-11T21:51:38.736Z,24.52
2023-01-11T21:54:08.410Z,26.73
2023-01-11T21:56:36.183Z,26.40
2023-01-11T21:59:04.247Z,23.40
2023-01-11T22:01:31.319Z,24.88
2023-01-11T22:03:58.732Z,25.30
2023-01-11T22:06:25.846Z,24.92
2023-01-11T22:08:52.985Z,25.05
2023-01-11T22:11:20.148Z,27.52
2023-01-11T22:13:47.215Z,24.13
2023-01-11T22:16:17.399Z,24.83
2023-01-11T22:21:14.983Z,23.25
2023-01-11T22:23:42.100Z,21.98
2023-01-11T22:26:14.872Z,26.08
2023-01-11T22:29:01.761Z,25.08
2023-01-11T22:31:30.847Z,27.60
2023-01-11T22:33:58.322Z,26.10
2023-01-11T22:36:26.134Z,26.45
2023-01-11T22:38:54.107Z,24.90
2023-01-11T22:41:21.788Z,23.30
2023-01-11T22:43:49.853Z,22.88
2023-01-11T22:46:22.688Z,24.55
2023-01-11T22:48:50.813Z,27.92
2023-01-11T22:51:20.501Z,23.75
2023-01-11T22:53:49.601Z,28.55
2023-01-11T22:56:19.258Z,25.48
2023-01-11T22:58:47.707Z,25.83
2023-01-11T23:01:16.950Z,23.20
2023-01-11T23:03:45.460Z,25.25
2023-01-11T23:06:13.583Z,23.63
2023-01-11T23:08:42.766Z,25.00
2023-01-11T23:11:36.990Z,24.63
2023-01-11T23:14:05.842Z,23.65
2023-01-11T23:16:33.336Z,22.83
2023-01-11T23:19:01.022Z,20.67
2023-01-11T23:21:28.587Z,20.02
2023-01-11T23:23:55.840Z,22.35
2023-01-11T23:26:23.009Z,21.98
2023-01-11T23:28:50.816Z,24.35
2023-01-11T23:31:20.466Z,22.45
2023-01-11T23:34:02.012Z,22.00
2023-01-11T23:36:34.425Z,21.25
2023-01-11T23:39:02.130Z,20.60
2023-01-11T23:41:48.008Z,21.52
2023-01-11T23:44:17.257Z,21.75
2023-01-11T23:47:03.796Z,20.48
2023-01-11T23:49:32.572Z,21.33
2023-01-11T23:52:00.409Z,20.75
2023-01-11T23:54:30.149Z,20.45
2023-01-11T23:56:58.491Z,18.85
2023-01-11T23:59:25.706Z,20.85
